Hauptseite
METAR-TAF:

METAR-TAF

Flughäfen :

Flughafen Skopje

Skopje, Mazedonien

Breite: 41-58N, Länge: 021-39E, Höhe: 238 m

Beobachtung

Neuester Wetterbericht von vor 7 Minuten, um 16:30 UTC
Wind 11 kt aus Südost
Temperatur 14°C
Luftfeuchtigkeit 47%
Luftdruck 1011 hPa
Sichtweite 10 km oder mehr
keine Wolken unter 1500 m und keine Kumulonimbus oder Gewitterwolken

METAR: LWSK 251630Z 14011KT CAVOK 14/03 Q1011 NOSIG

Zeit: 17:37 (16:37 UTC)

Prognose

Neuester Wetterbericht von vor 2 Stunden und 7 Minuten, um 14:30 UTC
Gültige Prognose vom 25 um 15 UTC bis 26 um 15 UTC
Wind 5 kt aus Südost
Sichtweite 10 km oder mehr
keine Wolken unter 1500 m und keine Kumulonimbus oder Gewitterwolken
Zeitweise
vom 25 um 15 UTC bis 25 um 18 UTC
Wind 12 kt aus Süd/Südost

TAF: LWSK 251430Z 2515/2615 14005KT CAVOK TEMPO 2515/2518 15012KT

Wetterbeobachtungen und Prognosen von mehr als 4000 Flughäfen (METAR und TAF Bericht).

Die verfügbaren Stationen werden durch gelbe und rote Markierungen auf der Karte dargestellt.

Führen Sie die Maus auf sie, um den Namen der Station zu sehen.

Darauf klicken, um die Beobachtung von Wetterbeobachtungen und Prognosen zu sehen.

Um die Karte zu ändern : klicken Sie auf den grünen Tasten mit einem schwarzen Kreuz Zum Vergrößern, auf den grünen Button mit einem Gedankenstrich zu verkleinern, oder auf die grünen Pfeile für benachbarte Karten.


METAR-TAF: